sensor_id;sensor_type;location;lat;lon;timestamp;P1;durP1;ratioP1;P2;durP2;ratioP2
33170;SDS011;19535;50.672;4.206;2023-02-01T00:02:13;25.83;;;23.33;;
33170;SDS011;19535;50.672;4.206;2023-02-01T00:04:40;22.50;;;20.35;;
33170;SDS011;19535;50.672;4.206;2023-02-01T00:07:07;20.45;;;18.55;;
33170;SDS011;19535;50.672;4.206;2023-02-01T00:09:34;18.10;;;16.40;;
33170;SDS011;19535;50.672;4.206;2023-02-01T00:12:01;16.17;;;14.73;;
33170;SDS011;19535;50.672;4.206;2023-02-01T00:14:29;14.77;;;13.38;;
33170;SDS011;19535;50.672;4.206;2023-02-01T00:16:56;14.48;;;13.07;;
33170;SDS011;19535;50.672;4.206;2023-02-01T00:19:23;14.05;;;12.75;;
33170;SDS011;19535;50.672;4.206;2023-02-01T00:21:50;12.25;;;11.20;;
33170;SDS011;19535;50.672;4.206;2023-02-01T00:24:17;13.57;;;12.30;;
33170;SDS011;19535;50.672;4.206;2023-02-01T00:26:44;11.10;;;10.10;;
33170;SDS011;19535;50.672;4.206;2023-02-01T00:29:13;11.70;;;10.60;;
33170;SDS011;19535;50.672;4.206;2023-02-01T00:31:41;11.88;;;10.77;;
33170;SDS011;19535;50.672;4.206;2023-02-01T00:34:12;12.35;;;11.25;;
33170;SDS011;19535;50.672;4.206;2023-02-01T00:36:41;10.35;;;9.45;;
33170;SDS011;19535;50.672;4.206;2023-02-01T00:39:09;9.68;;;8.88;;
33170;SDS011;19535;50.672;4.206;2023-02-01T00:41:36;9.50;;;8.60;;
33170;SDS011;19535;50.672;4.206;2023-02-01T00:44:03;9.73;;;8.82;;
33170;SDS011;19535;50.672;4.206;2023-02-01T00:46:30;10.07;;;9.07;;
33170;SDS011;19535;50.672;4.206;2023-02-01T00:48:57;12.48;;;11.35;;
33170;SDS011;19535;50.672;4.206;2023-02-01T00:51:25;26.55;;;24.02;;
33170;SDS011;19535;50.672;4.206;2023-02-01T00:53:53;28.80;;;26.00;;
33170;SDS011;19535;50.672;4.206;2023-02-01T00:56:20;23.90;;;21.58;;
33170;SDS011;19535;50.672;4.206;2023-02-01T00:58:47;21.33;;;19.52;;
33170;SDS011;19535;50.672;4.206;2023-02-01T01:01:15;20.48;;;18.58;;
33170;SDS011;19535;50.672;4.206;2023-02-01T01:03:47;18.10;;;16.30;;
33170;SDS011;19535;50.672;4.206;2023-02-01T01:06:29;16.25;;;14.85;;
33170;SDS011;19535;50.672;4.206;2023-02-01T01:08:58;15.85;;;14.43;;
33170;SDS011;19535;50.672;4.206;2023-02-01T01:11:27;14.70;;;13.30;;
33170;SDS011;19535;50.672;4.206;2023-02-01T01:16:24;13.13;;;11.90;;
33170;SDS011;19535;50.672;4.206;2023-02-01T01:18:52;12.07;;;11.02;;
33170;SDS011;19535;50.672;4.206;2023-02-01T01:21:19;11.32;;;10.35;;
33170;SDS011;19535;50.672;4.206;2023-02-01T01:23:47;12.15;;;11.05;;
33170;SDS011;19535;50.672;4.206;2023-02-01T01:26:18;10.50;;;9.60;;
33170;SDS011;19535;50.672;4.206;2023-02-01T01:28:46;10.60;;;9.70;;
33170;SDS011;19535;50.672;4.206;2023-02-01T01:31:14;11.25;;;10.18;;
33170;SDS011;19535;50.672;4.206;2023-02-01T01:33:42;10.75;;;9.65;;
33170;SDS011;19535;50.672;4.206;2023-02-01T01:36:10;10.10;;;9.10;;
33170;SDS011;19535;50.672;4.206;2023-02-01T01:38:38;9.88;;;8.98;;
33170;SDS011;19535;50.672;4.206;2023-02-01T01:41:06;9.82;;;8.93;;
33170;SDS011;19535;50.672;4.206;2023-02-01T01:46:25;8.60;;;7.80;;
33170;SDS011;19535;50.672;4.206;2023-02-01T01:49:04;9.65;;;8.68;;
33170;SDS011;19535;50.672;4.206;2023-02-01T01:51:49;9.43;;;8.52;;
33170;SDS011;19535;50.672;4.206;2023-02-01T01:54:23;8.88;;;7.97;;
33170;SDS011;19535;50.672;4.206;2023-02-01T01:56:53;8.43;;;7.70;;
33170;SDS011;19535;50.672;4.206;2023-02-01T01:59:23;8.43;;;7.63;;
33170;SDS011;19535;50.672;4.206;2023-02-01T02:01:51;8.23;;;7.43;;
33170;SDS011;19535;50.672;4.206;2023-02-01T02:04:18;8.70;;;7.90;;
33170;SDS011;19535;50.672;4.206;2023-02-01T02:07:03;7.95;;;7.22;;
33170;SDS011;19535;50.672;4.206;2023-02-01T02:09:32;8.15;;;7.22;;
33170;SDS011;19535;50.672;4.206;2023-02-01T02:11:58;8.32;;;6.80;;
33170;SDS011;19535;50.672;4.206;2023-02-01T02:14:25;7.82;;;7.03;;
33170;SDS011;19535;50.672;4.206;2023-02-01T02:22:54;7.25;;;6.55;;
33170;SDS011;19535;50.672;4.206;2023-02-01T02:26:00;7.45;;;6.50;;
33170;SDS011;19535;50.672;4.206;2023-02-01T02:34:54;7.07;;;6.20;;
33170;SDS011;19535;50.672;4.206;2023-02-01T02:37:45;6.40;;;5.80;;
33170;SDS011;19535;50.672;4.206;2023-02-01T02:40:35;6.97;;;6.10;;
33170;SDS011;19535;50.672;4.206;2023-02-01T02:43:10;6.80;;;6.15;;
33170;SDS011;19535;50.672;4.206;2023-02-01T02:46:27;6.57;;;5.78;;
33170;SDS011;19535;50.672;4.206;2023-02-01T02:49:16;6.35;;;5.75;;
33170;SDS011;19535;50.672;4.206;2023-02-01T02:51:55;7.25;;;6.18;;
33170;SDS011;19535;50.672;4.206;2023-02-01T02:54:45;7.72;;;5.97;;
33170;SDS011;19535;50.672;4.206;2023-02-01T02:57:15;5.93;;;5.30;;
33170;SDS011;19535;50.672;4.206;2023-02-01T03:00:08;5.72;;;5.15;;
33170;SDS011;19535;50.672;4.206;2023-02-01T03:02:55;6.35;;;5.70;;
33170;SDS011;19535;50.672;4.206;2023-02-01T03:05:43;7.15;;;5.63;;
33170;SDS011;19535;50.672;4.206;2023-02-01T03:08:15;6.32;;;5.72;;
33170;SDS011;19535;50.672;4.206;2023-02-01T03:10:51;5.72;;;5.10;;
33170;SDS011;19535;50.672;4.206;2023-02-01T03:13:33;5.82;;;5.18;;
33170;SDS011;19535;50.672;4.206;2023-02-01T03:21:41;6.22;;;5.05;;
33170;SDS011;19535;50.672;4.206;2023-02-01T03:24:11;5.70;;;5.10;;
33170;SDS011;19535;50.672;4.206;2023-02-01T03:26:41;6.00;;;4.70;;
33170;SDS011;19535;50.672;4.206;2023-02-01T03:29:14;6.13;;;4.75;;
33170;SDS011;19535;50.672;4.206;2023-02-01T03:31:44;5.70;;;4.55;;
33170;SDS011;19535;50.672;4.206;2023-02-01T03:34:11;5.10;;;4.28;;
33170;SDS011;19535;50.672;4.206;2023-02-01T03:36:40;5.30;;;4.68;;
33170;SDS011;19535;50.672;4.206;2023-02-01T03:39:24;5.15;;;4.38;;
33170;SDS011;19535;50.672;4.206;2023-02-01T03:42:12;5.80;;;4.75;;
33170;SDS011;19535;50.672;4.206;2023-02-01T03:47:33;5.10;;;4.05;;
33170;SDS011;19535;50.672;4.206;2023-02-01T03:50:03;5.32;;;4.00;;
33170;SDS011;19535;50.672;4.206;2023-02-01T03:52:48;5.57;;;4.30;;
33170;SDS011;19535;50.672;4.206;2023-02-01T03:55:25;4.72;;;4.20;;
33170;SDS011;19535;50.672;4.206;2023-02-01T04:00:50;7.35;;;4.63;;
33170;SDS011;19535;50.672;4.206;2023-02-01T04:03:22;6.07;;;4.13;;
33170;SDS011;19535;50.672;4.206;2023-02-01T04:05:49;4.18;;;3.35;;
33170;SDS011;19535;50.672;4.206;2023-02-01T04:08:17;4.28;;;3.47;;
33170;SDS011;19535;50.672;4.206;2023-02-01T04:10:47;5.70;;;4.15;;
33170;SDS011;19535;50.672;4.206;2023-02-01T04:13:14;4.53;;;3.47;;
33170;SDS011;19535;50.672;4.206;2023-02-01T04:15:41;4.25;;;3.72;;
33170;SDS011;19535;50.672;4.206;2023-02-01T04:18:09;5.28;;;3.67;;
33170;SDS011;19535;50.672;4.206;2023-02-01T04:20:36;4.85;;;3.80;;
33170;SDS011;19535;50.672;4.206;2023-02-01T04:23:03;4.07;;;3.42;;
33170;SDS011;19535;50.672;4.206;2023-02-01T04:25:29;4.68;;;3.33;;
33170;SDS011;19535;50.672;4.206;2023-02-01T04:27:56;4.55;;;3.53;;
33170;SDS011;19535;50.672;4.206;2023-02-01T04:30:23;3.75;;;3.20;;
33170;SDS011;19535;50.672;4.206;2023-02-01T04:32:50;4.53;;;3.50;;
33170;SDS011;19535;50.672;4.206;2023-02-01T04:35:17;4.30;;;3.60;;
33170;SDS011;19535;50.672;4.206;2023-02-01T04:37:44;3.92;;;3.00;;
33170;SDS011;19535;50.672;4.206;2023-02-01T04:40:11;4.00;;;3.30;;
33170;SDS011;19535;50.672;4.206;2023-02-01T04:42:38;4.65;;;3.28;;
33170;SDS011;19535;50.672;4.206;2023-02-01T04:45:05;4.57;;;3.53;;
33170;SDS011;19535;50.672;4.206;2023-02-01T04:47:32;3.47;;;3.10;;
33170;SDS011;19535;50.672;4.206;2023-02-01T04:50:00;4.25;;;3.30;;
33170;SDS011;19535;50.672;4.206;2023-02-01T04:52:27;5.00;;;3.30;;
33170;SDS011;19535;50.672;4.206;2023-02-01T04:54:53;3.88;;;3.05;;
33170;SDS011;19535;50.672;4.206;2023-02-01T04:57:24;4.75;;;3.20;;
33170;SDS011;19535;50.672;4.206;2023-02-01T04:59:51;4.82;;;3.00;;
33170;SDS011;19535;50.672;4.206;2023-02-01T05:02:18;4.03;;;2.95;;
33170;SDS011;19535;50.672;4.206;2023-02-01T05:04:45;3.35;;;2.70;;
33170;SDS011;19535;50.672;4.206;2023-02-01T05:07:12;3.88;;;3.28;;
33170;SDS011;19535;50.672;4.206;2023-02-01T05:09:39;4.15;;;3.00;;
33170;SDS011;19535;50.672;4.206;2023-02-01T05:12:06;5.53;;;3.15;;
33170;SDS011;19535;50.672;4.206;2023-02-01T05:14:53;4.82;;;3.28;;
33170;SDS011;19535;50.672;4.206;2023-02-01T05:17:19;4.40;;;3.33;;
33170;SDS011;19535;50.672;4.206;2023-02-01T05:19:46;4.50;;;2.78;;
33170;SDS011;19535;50.672;4.206;2023-02-01T05:22:13;5.10;;;3.30;;
33170;SDS011;19535;50.672;4.206;2023-02-01T05:24:40;4.95;;;2.72;;
33170;SDS011;19535;50.672;4.206;2023-02-01T05:27:07;4.75;;;2.45;;
33170;SDS011;19535;50.672;4.206;2023-02-01T05:29:34;5.50;;;3.00;;
33170;SDS011;19535;50.672;4.206;2023-02-01T05:32:00;5.07;;;3.00;;
33170;SDS011;19535;50.672;4.206;2023-02-01T05:34:46;4.20;;;2.70;;
33170;SDS011;19535;50.672;4.206;2023-02-01T05:37:13;5.00;;;2.70;;
33170;SDS011;19535;50.672;4.206;2023-02-01T05:39:40;4.38;;;2.65;;
33170;SDS011;19535;50.672;4.206;2023-02-01T05:42:07;4.20;;;2.65;;
33170;SDS011;19535;50.672;4.206;2023-02-01T05:44:34;4.68;;;2.63;;
33170;SDS011;19535;50.672;4.206;2023-02-01T05:47:00;4.32;;;2.80;;
33170;SDS011;19535;50.672;4.206;2023-02-01T05:49:27;4.43;;;2.40;;
33170;SDS011;19535;50.672;4.206;2023-02-01T05:51:54;4.25;;;2.50;;
33170;SDS011;19535;50.672;4.206;2023-02-01T05:54:23;3.92;;;2.72;;
33170;SDS011;19535;50.672;4.206;2023-02-01T05:56:50;3.90;;;2.78;;
33170;SDS011;19535;50.672;4.206;2023-02-01T05:59:17;3.33;;;2.22;;
33170;SDS011;19535;50.672;4.206;2023-02-01T06:01:44;4.13;;;2.33;;
33170;SDS011;19535;50.672;4.206;2023-02-01T06:04:10;4.50;;;2.65;;
33170;SDS011;19535;50.672;4.206;2023-02-01T06:06:37;3.67;;;2.20;;
33170;SDS011;19535;50.672;4.206;2023-02-01T06:09:04;5.30;;;2.72;;
33170;SDS011;19535;50.672;4.206;2023-02-01T06:11:31;3.67;;;2.30;;
33170;SDS011;19535;50.672;4.206;2023-02-01T06:13:58;3.20;;;2.50;;
33170;SDS011;19535;50.672;4.206;2023-02-01T06:16:25;4.32;;;2.58;;
33170;SDS011;19535;50.672;4.206;2023-02-01T06:18:53;3.90;;;2.35;;
33170;SDS011;19535;50.672;4.206;2023-02-01T06:21:20;3.65;;;2.08;;
33170;SDS011;19535;50.672;4.206;2023-02-01T06:23:50;2.88;;;2.30;;
33170;SDS011;19535;50.672;4.206;2023-02-01T06:26:18;3.88;;;2.30;;
33170;SDS011;19535;50.672;4.206;2023-02-01T06:28:45;3.05;;;1.98;;
33170;SDS011;19535;50.672;4.206;2023-02-01T06:31:12;3.20;;;2.28;;
33170;SDS011;19535;50.672;4.206;2023-02-01T06:33:39;4.63;;;2.50;;
33170;SDS011;19535;50.672;4.206;2023-02-01T06:36:07;2.50;;;2.10;;
33170;SDS011;19535;50.672;4.206;2023-02-01T06:38:36;4.93;;;2.47;;
33170;SDS011;19535;50.672;4.206;2023-02-01T06:41:03;5.55;;;2.72;;
33170;SDS011;19535;50.672;4.206;2023-02-01T06:43:30;3.58;;;2.50;;
33170;SDS011;19535;50.672;4.206;2023-02-01T06:46:02;4.20;;;2.30;;
33170;SDS011;19535;50.672;4.206;2023-02-01T06:48:34;4.30;;;2.28;;
33170;SDS011;19535;50.672;4.206;2023-02-01T06:51:01;3.47;;;2.13;;
33170;SDS011;19535;50.672;4.206;2023-02-01T06:53:28;3.80;;;2.13;;
33170;SDS011;19535;50.672;4.206;2023-02-01T06:55:56;3.92;;;1.98;;
33170;SDS011;19535;50.672;4.206;2023-02-01T06:58:24;3.85;;;2.45;;
33170;SDS011;19535;50.672;4.206;2023-02-01T07:00:54;4.57;;;2.53;;
33170;SDS011;19535;50.672;4.206;2023-02-01T07:03:21;3.75;;;2.53;;
33170;SDS011;19535;50.672;4.206;2023-02-01T07:05:47;3.80;;;2.58;;
33170;SDS011;19535;50.672;4.206;2023-02-01T07:08:14;3.28;;;2.10;;
33170;SDS011;19535;50.672;4.206;2023-02-01T07:10:41;3.20;;;2.17;;
33170;SDS011;19535;50.672;4.206;2023-02-01T07:13:08;4.53;;;2.47;;
33170;SDS011;19535;50.672;4.206;2023-02-01T07:15:35;4.65;;;2.40;;
33170;SDS011;19535;50.672;4.206;2023-02-01T07:18:02;4.90;;;2.17;;
33170;SDS011;19535;50.672;4.206;2023-02-01T07:20:29;4.28;;;2.25;;
33170;SDS011;19535;50.672;4.206;2023-02-01T07:22:56;5.32;;;2.75;;
33170;SDS011;19535;50.672;4.206;2023-02-01T07:25:23;3.25;;;2.22;;
33170;SDS011;19535;50.672;4.206;2023-02-01T07:27:50;4.07;;;2.30;;
33170;SDS011;19535;50.672;4.206;2023-02-01T07:30:17;7.25;;;5.70;;
33170;SDS011;19535;50.672;4.206;2023-02-01T07:32:45;16.67;;;14.88;;
33170;SDS011;19535;50.672;4.206;2023-02-01T07:35:11;13.70;;;10.65;;
33170;SDS011;19535;50.672;4.206;2023-02-01T07:37:40;12.23;;;9.98;;
33170;SDS011;19535;50.672;4.206;2023-02-01T07:40:07;9.95;;;8.95;;
33170;SDS011;19535;50.672;4.206;2023-02-01T07:42:34;9.98;;;7.68;;
33170;SDS011;19535;50.672;4.206;2023-02-01T07:45:01;9.98;;;6.85;;
33170;SDS011;19535;50.672;4.206;2023-02-01T07:47:45;7.72;;;6.72;;
33170;SDS011;19535;50.672;4.206;2023-02-01T07:50:12;10.40;;;6.57;;
33170;SDS011;19535;50.672;4.206;2023-02-01T07:52:39;7.88;;;5.60;;
33170;SDS011;19535;50.672;4.206;2023-02-01T07:55:07;9.88;;;5.75;;
33170;SDS011;19535;50.672;4.206;2023-02-01T07:57:34;7.90;;;5.55;;
33170;SDS011;19535;50.672;4.206;2023-02-01T08:00:01;6.47;;;4.82;;
33170;SDS011;19535;50.672;4.206;2023-02-01T08:02:47;12.43;;;8.98;;
33170;SDS011;19535;50.672;4.206;2023-02-01T08:05:14;20.88;;;18.48;;
33170;SDS011;19535;50.672;4.206;2023-02-01T08:07:41;19.65;;;16.65;;
33170;SDS011;19535;50.672;4.206;2023-02-01T08:10:08;15.82;;;14.18;;
33170;SDS011;19535;50.672;4.206;2023-02-01T08:12:37;14.20;;;12.73;;
33170;SDS011;19535;50.672;4.206;2023-02-01T08:15:04;13.48;;;10.52;;
33170;SDS011;19535;50.672;4.206;2023-02-01T08:17:31;12.75;;;10.07;;
33170;SDS011;19535;50.672;4.206;2023-02-01T08:19:59;13.57;;;10.50;;
33170;SDS011;19535;50.672;4.206;2023-02-01T08:22:26;9.75;;;8.10;;
33170;SDS011;19535;50.672;4.206;2023-02-01T08:24:52;9.05;;;7.03;;
33170;SDS011;19535;50.672;4.206;2023-02-01T08:27:27;8.73;;;7.38;;
33170;SDS011;19535;50.672;4.206;2023-02-01T08:29:54;8.73;;;7.20;;
33170;SDS011;19535;50.672;4.206;2023-02-01T08:32:21;9.18;;;6.72;;
33170;SDS011;19535;50.672;4.206;2023-02-01T08:34:48;9.90;;;6.50;;
33170;SDS011;19535;50.672;4.206;2023-02-01T08:37:15;7.55;;;6.47;;
33170;SDS011;19535;50.672;4.206;2023-02-01T08:39:42;8.55;;;6.03;;
33170;SDS011;19535;50.672;4.206;2023-02-01T08:42:12;8.13;;;5.75;;
33170;SDS011;19535;50.672;4.206;2023-02-01T08:44:58;6.80;;;5.03;;
33170;SDS011;19535;50.672;4.206;2023-02-01T08:47:24;6.95;;;5.55;;
33170;SDS011;19535;50.672;4.206;2023-02-01T08:49:51;8.73;;;5.60;;
33170;SDS011;19535;50.672;4.206;2023-02-01T08:52:19;9.55;;;5.13;;
33170;SDS011;19535;50.672;4.206;2023-02-01T08:54:46;8.07;;;5.13;;
33170;SDS011;19535;50.672;4.206;2023-02-01T08:57:13;8.88;;;6.10;;
33170;SDS011;19535;50.672;4.206;2023-02-01T08:59:40;6.43;;;5.55;;
33170;SDS011;19535;50.672;4.206;2023-02-01T09:02:14;6.35;;;5.20;;
33170;SDS011;19535;50.672;4.206;2023-02-01T09:04:42;6.07;;;4.90;;
33170;SDS011;19535;50.672;4.206;2023-02-01T09:07:09;6.75;;;5.05;;
33170;SDS011;19535;50.672;4.206;2023-02-01T09:09:37;7.18;;;4.35;;
33170;SDS011;19535;50.672;4.206;2023-02-01T09:12:04;8.60;;;4.75;;
33170;SDS011;19535;50.672;4.206;2023-02-01T09:14:31;7.97;;;4.72;;
33170;SDS011;19535;50.672;4.206;2023-02-01T09:16:58;5.03;;;4.10;;
33170;SDS011;19535;50.672;4.206;2023-02-01T09:19:25;5.80;;;4.43;;
33170;SDS011;19535;50.672;4.206;2023-02-01T09:21:52;6.88;;;4.30;;
33170;SDS011;19535;50.672;4.206;2023-02-01T09:24:19;6.55;;;4.43;;
33170;SDS011;19535;50.672;4.206;2023-02-01T09:26:46;6.40;;;4.00;;
33170;SDS011;19535;50.672;4.206;2023-02-01T09:29:13;6.35;;;3.70;;
33170;SDS011;19535;50.672;4.206;2023-02-01T09:31:40;6.43;;;4.35;;
33170;SDS011;19535;50.672;4.206;2023-02-01T09:34:22;7.07;;;3.65;;
33170;SDS011;19535;50.672;4.206;2023-02-01T09:36:49;6.53;;;3.97;;
33170;SDS011;19535;50.672;4.206;2023-02-01T09:39:19;5.50;;;3.63;;
33170;SDS011;19535;50.672;4.206;2023-02-01T09:44:37;4.97;;;3.10;;
33170;SDS011;19535;50.672;4.206;2023-02-01T09:47:14;5.30;;;3.47;;
33170;SDS011;19535;50.672;4.206;2023-02-01T09:49:48;6.07;;;3.60;;
33170;SDS011;19535;50.672;4.206;2023-02-01T09:52:25;5.57;;;3.75;;
33170;SDS011;19535;50.672;4.206;2023-02-01T09:55:27;6.78;;;3.60;;
33170;SDS011;19535;50.672;4.206;2023-02-01T09:58:20;6.95;;;3.45;;
33170;SDS011;19535;50.672;4.206;2023-02-01T10:00:53;6.25;;;3.45;;
33170;SDS011;19535;50.672;4.206;2023-02-01T10:03:21;5.63;;;3.00;;
33170;SDS011;19535;50.672;4.206;2023-02-01T10:06:09;5.07;;;3.65;;
33170;SDS011;19535;50.672;4.206;2023-02-01T10:23:32;5.75;;;3.22;;
33170;SDS011;19535;50.672;4.206;2023-02-01T10:26:23;5.43;;;3.25;;
33170;SDS011;19535;50.672;4.206;2023-02-01T10:28:52;5.47;;;3.03;;
33170;SDS011;19535;50.672;4.206;2023-02-01T10:31:23;4.97;;;2.97;;
33170;SDS011;19535;50.672;4.206;2023-02-01T10:37:07;14.60;;;12.88;;
33170;SDS011;19535;50.672;4.206;2023-02-01T10:39:52;12.70;;;11.07;;
33170;SDS011;19535;50.672;4.206;2023-02-01T10:42:23;11.20;;;9.48;;
33170;SDS011;19535;50.672;4.206;2023-02-01T10:44:52;8.45;;;7.55;;
33170;SDS011;19535;50.672;4.206;2023-02-01T10:47:25;9.82;;;6.15;;
33170;SDS011;19535;50.672;4.206;2023-02-01T10:49:54;7.50;;;5.90;;
33170;SDS011;19535;50.672;4.206;2023-02-01T10:58:18;6.30;;;4.47;;
33170;SDS011;19535;50.672;4.206;2023-02-01T11:06:48;5.25;;;3.97;;
33170;SDS011;19535;50.672;4.206;2023-02-01T11:08:58;5.38;;;3.70;;
33170;SDS011;19535;50.672;4.206;2023-02-01T11:11:28;4.32;;;3.35;;
33170;SDS011;19535;50.672;4.206;2023-02-01T11:13:59;4.50;;;3.45;;
33170;SDS011;19535;50.672;4.206;2023-02-01T11:16:33;4.43;;;3.20;;
33170;SDS011;19535;50.672;4.206;2023-02-01T11:19:02;4.40;;;4.00;;
33170;SDS011;19535;50.672;4.206;2023-02-01T11:21:29;10.65;;;8.85;;
33170;SDS011;19535;50.672;4.206;2023-02-01T11:23:57;9.90;;;8.60;;
33170;SDS011;19535;50.672;4.206;2023-02-01T11:26:28;8.65;;;7.65;;
33170;SDS011;19535;50.672;4.206;2023-02-01T11:29:08;7.25;;;6.55;;
33170;SDS011;19535;50.672;4.206;2023-02-01T11:31:39;6.75;;;5.95;;
33170;SDS011;19535;50.672;4.206;2023-02-01T11:34:11;6.40;;;5.47;;
33170;SDS011;19535;50.672;4.206;2023-02-01T11:36:41;6.53;;;4.53;;
33170;SDS011;19535;50.672;4.206;2023-02-01T11:44:21;6.30;;;4.13;;
33170;SDS011;19535;50.672;4.206;2023-02-01T11:46:52;5.50;;;3.95;;
33170;SDS011;19535;50.672;4.206;2023-02-01T11:49:27;5.40;;;4.10;;
33170;SDS011;19535;50.672;4.206;2023-02-01T11:54:49;8.25;;;5.90;;
33170;SDS011;19535;50.672;4.206;2023-02-01T12:00:24;6.10;;;5.38;;
33170;SDS011;19535;50.672;4.206;2023-02-01T12:05:44;5.97;;;4.15;;
33170;SDS011;19535;50.672;4.206;2023-02-01T12:16:58;4.45;;;2.97;;
33170;SDS011;19535;50.672;4.206;2023-02-01T12:25:13;3.72;;;2.67;;
33170;SDS011;19535;50.672;4.206;2023-02-01T12:36:03;4.70;;;4.07;;
33170;SDS011;19535;50.672;4.206;2023-02-01T12:39:04;4.38;;;3.38;;
33170;SDS011;19535;50.672;4.206;2023-02-01T12:44:32;4.05;;;2.75;;
33170;SDS011;19535;50.672;4.206;2023-02-01T12:47:21;3.05;;;2.72;;
33170;SDS011;19535;50.672;4.206;2023-02-01T12:50:00;3.15;;;2.30;;
33170;SDS011;19535;50.672;4.206;2023-02-01T12:53:09;3.50;;;2.50;;
33170;SDS011;19535;50.672;4.206;2023-02-01T12:55:53;3.63;;;2.55;;
33170;SDS011;19535;50.672;4.206;2023-02-01T12:58:31;3.25;;;2.30;;
33170;SDS011;19535;50.672;4.206;2023-02-01T13:01:03;3.00;;;2.35;;
33170;SDS011;19535;50.672;4.206;2023-02-01T13:03:39;2.63;;;2.10;;
33170;SDS011;19535;50.672;4.206;2023-02-01T13:06:33;3.17;;;1.90;;
33170;SDS011;19535;50.672;4.206;2023-02-01T13:12:19;2.78;;;2.05;;
33170;SDS011;19535;50.672;4.206;2023-02-01T13:14:52;3.95;;;2.20;;
33170;SDS011;19535;50.672;4.206;2023-02-01T13:17:26;4.60;;;2.35;;
33170;SDS011;19535;50.672;4.206;2023-02-01T13:19:56;5.82;;;2.10;;
33170;SDS011;19535;50.672;4.206;2023-02-01T13:22:34;3.10;;;2.10;;
33170;SDS011;19535;50.672;4.206;2023-02-01T13:25:04;3.45;;;2.20;;
33170;SDS011;19535;50.672;4.206;2023-02-01T13:27:39;3.72;;;2.40;;
33170;SDS011;19535;50.672;4.206;2023-02-01T13:41:25;4.43;;;2.08;;
33170;SDS011;19535;50.672;4.206;2023-02-01T13:43:57;2.88;;;1.90;;
33170;SDS011;19535;50.672;4.206;2023-02-01T13:46:26;2.03;;;1.55;;
33170;SDS011;19535;50.672;4.206;2023-02-01T13:51:43;2.10;;;1.80;;
33170;SDS011;19535;50.672;4.206;2023-02-01T13:57:00;1.73;;;1.25;;
33170;SDS011;19535;50.672;4.206;2023-02-01T14:05:10;2.90;;;1.30;;
33170;SDS011;19535;50.672;4.206;2023-02-01T14:21:22;3.25;;;1.65;;
33170;SDS011;19535;50.672;4.206;2023-02-01T14:34:19;6.63;;;2.15;;
33170;SDS011;19535;50.672;4.206;2023-02-01T14:44:52;9.98;;;2.40;;
33170;SDS011;19535;50.672;4.206;2023-02-01T14:47:26;10.70;;;2.00;;
33170;SDS011;19535;50.672;4.206;2023-02-01T14:50:17;11.32;;;2.17;;
33170;SDS011;19535;50.672;4.206;2023-02-01T14:58:51;13.75;;;2.55;;
33170;SDS011;19535;50.672;4.206;2023-02-01T15:01:33;16.27;;;3.65;;
33170;SDS011;19535;50.672;4.206;2023-02-01T15:04:15;19.30;;;8.67;;
33170;SDS011;19535;50.672;4.206;2023-02-01T15:09:24;21.77;;;7.30;;
33170;SDS011;19535;50.672;4.206;2023-02-01T15:12:18;15.98;;;6.18;;
33170;SDS011;19535;50.672;4.206;2023-02-01T15:15:09;19.33;;;6.00;;
33170;SDS011;19535;50.672;4.206;2023-02-01T15:20:27;16.27;;;4.57;;
33170;SDS011;19535;50.672;4.206;2023-02-01T15:23:00;12.00;;;4.22;;
33170;SDS011;19535;50.672;4.206;2023-02-01T15:25:35;16.77;;;8.65;;
33170;SDS011;19535;50.672;4.206;2023-02-01T15:28:05;18.83;;;10.02;;
33170;SDS011;19535;50.672;4.206;2023-02-01T15:30:35;18.38;;;10.25;;
33170;SDS011;19535;50.672;4.206;2023-02-01T15:33:06;18.58;;;7.88;;
33170;SDS011;19535;50.672;4.206;2023-02-01T15:35:41;14.07;;;8.00;;
33170;SDS011;19535;50.672;4.206;2023-02-01T15:40:59;15.40;;;6.40;;
33170;SDS011;19535;50.672;4.206;2023-02-01T15:43:39;13.85;;;6.05;;
33170;SDS011;19535;50.672;4.206;2023-02-01T15:46:08;15.18;;;5.10;;
33170;SDS011;19535;50.672;4.206;2023-02-01T15:48:45;11.73;;;4.95;;
33170;SDS011;19535;50.672;4.206;2023-02-01T15:51:15;14.10;;;5.00;;
33170;SDS011;19535;50.672;4.206;2023-02-01T15:53:47;10.70;;;4.43;;
33170;SDS011;19535;50.672;4.206;2023-02-01T15:56:26;8.18;;;4.30;;
33170;SDS011;19535;50.672;4.206;2023-02-01T15:58:57;9.55;;;3.70;;
33170;SDS011;19535;50.672;4.206;2023-02-01T16:01:26;9.48;;;3.72;;
33170;SDS011;19535;50.672;4.206;2023-02-01T16:04:10;7.13;;;3.40;;
33170;SDS011;19535;50.672;4.206;2023-02-01T16:06:59;11.73;;;3.58;;
33170;SDS011;19535;50.672;4.206;2023-02-01T16:09:37;6.35;;;3.30;;
33170;SDS011;19535;50.672;4.206;2023-02-01T16:12:31;10.40;;;3.45;;
33170;SDS011;19535;50.672;4.206;2023-02-01T16:15:02;12.85;;;4.85;;
33170;SDS011;19535;50.672;4.206;2023-02-01T16:17:29;12.00;;;4.10;;
33170;SDS011;19535;50.672;4.206;2023-02-01T16:19:56;14.02;;;5.10;;
33170;SDS011;19535;50.672;4.206;2023-02-01T16:22:24;15.90;;;5.78;;
33170;SDS011;19535;50.672;4.206;2023-02-01T16:24:51;17.02;;;5.90;;
33170;SDS011;19535;50.672;4.206;2023-02-01T16:27:18;19.25;;;5.50;;
33170;SDS011;19535;50.672;4.206;2023-02-01T16:29:47;20.93;;;6.70;;
33170;SDS011;19535;50.672;4.206;2023-02-01T16:32:16;19.40;;;6.20;;
33170;SDS011;19535;50.672;4.206;2023-02-01T16:34:45;24.67;;;7.32;;
33170;SDS011;19535;50.672;4.206;2023-02-01T16:37:13;20.73;;;7.03;;
33170;SDS011;19535;50.672;4.206;2023-02-01T16:39:43;24.60;;;7.07;;
33170;SDS011;19535;50.672;4.206;2023-02-01T16:42:12;24.55;;;7.30;;
33170;SDS011;19535;50.672;4.206;2023-02-01T16:44:40;20.73;;;7.18;;
33170;SDS011;19535;50.672;4.206;2023-02-01T16:47:14;20.65;;;6.90;;
33170;SDS011;19535;50.672;4.206;2023-02-01T16:49:43;28.45;;;7.85;;
33170;SDS011;19535;50.672;4.206;2023-02-01T16:52:15;26.17;;;8.48;;
33170;SDS011;19535;50.672;4.206;2023-02-01T16:54:45;22.45;;;7.32;;
33170;SDS011;19535;50.672;4.206;2023-02-01T16:57:13;22.33;;;7.70;;
33170;SDS011;19535;50.672;4.206;2023-02-01T16:59:41;19.95;;;7.72;;
33170;SDS011;19535;50.672;4.206;2023-02-01T17:02:10;17.58;;;6.28;;
33170;SDS011;19535;50.672;4.206;2023-02-01T17:04:40;22.15;;;6.97;;
33170;SDS011;19535;50.672;4.206;2023-02-01T17:07:12;16.23;;;6.22;;
33170;SDS011;19535;50.672;4.206;2023-02-01T17:09:43;16.85;;;5.65;;
33170;SDS011;19535;50.672;4.206;2023-02-01T17:14:49;18.88;;;9.57;;
33170;SDS011;19535;50.672;4.206;2023-02-01T17:17:17;24.58;;;17.80;;
33170;SDS011;19535;50.672;4.206;2023-02-01T17:19:58;25.13;;;16.83;;
33170;SDS011;19535;50.672;4.206;2023-02-01T17:22:25;22.50;;;14.68;;
33170;SDS011;19535;50.672;4.206;2023-02-01T17:24:52;21.80;;;13.50;;
33170;SDS011;19535;50.672;4.206;2023-02-01T17:27:19;17.23;;;12.18;;
33170;SDS011;19535;50.672;4.206;2023-02-01T17:29:46;18.13;;;11.45;;
33170;SDS011;19535;50.672;4.206;2023-02-01T17:32:15;16.75;;;10.82;;
33170;SDS011;19535;50.672;4.206;2023-02-01T17:34:47;15.85;;;9.98;;
33170;SDS011;19535;50.672;4.206;2023-02-01T17:37:36;16.70;;;9.52;;
33170;SDS011;19535;50.672;4.206;2023-02-01T17:40:02;17.17;;;9.43;;
33170;SDS011;19535;50.672;4.206;2023-02-01T17:42:29;17.08;;;8.65;;
33170;SDS011;19535;50.672;4.206;2023-02-01T17:44:59;15.63;;;8.50;;
33170;SDS011;19535;50.672;4.206;2023-02-01T17:47:46;12.32;;;7.13;;
33170;SDS011;19535;50.672;4.206;2023-02-01T17:50:13;11.98;;;6.97;;
33170;SDS011;19535;50.672;4.206;2023-02-01T17:52:40;13.80;;;7.88;;
33170;SDS011;19535;50.672;4.206;2023-02-01T17:55:20;12.27;;;6.88;;
33170;SDS011;19535;50.672;4.206;2023-02-01T17:57:51;10.23;;;6.50;;
33170;SDS011;19535;50.672;4.206;2023-02-01T18:00:18;12.32;;;6.78;;
33170;SDS011;19535;50.672;4.206;2023-02-01T18:02:46;16.17;;;11.82;;